Bahia De Getares — EA5074 — position and weather

sailwx.info

Track history (hours):
 
Tides and Currents Weather Stations Pressure Air Temp Water Temp Dewpoint Dewpoint Depression Visibility Wind Speed Wind Dir Waves Ship Positions

Bahia De Getares

Last reported at 2018-Jan-18 12:01 UTC. Time now 2018-Jan-19 03:55 UTC.
Position N 36°09' W 005°26'.

Length 23 m.

Type: Ship. MMSI: 225985074.

Date/timePositionNaut miles runAvg speedWind from/ knotsBaromVisibWave heightAir tempDewpointWater temp
2018-Jan-18 12:01N 36°09' W 005°26'0 0.0
2018-Jan-18 12:00N 36°09' W 005°26'0 0.0
2018-Jan-18 11:26N 36°09' W 005°26'0 0.0
2018-Jan-18 11:00N 36°09' W 005°26'0 0.0
2018-Jan-18 10:29N 36°09' W 005°26'0 0.0
2018-Jan-18 10:00N 36°09' W 005°26'0 0.0
2018-Jan-18 09:29N 36°09' W 005°26'0 0.0
2018-Jan-18 08:58N 36°09' W 005°26'1 3.1
2018-Jan-18 08:31N 36°08' W 005°25'4 7.7
2018-Jan-18 08:00N 36°04' W 005°23'0 0.2
2018-Jan-18 07:30N 36°04' W 005°23'1 1.4
2018-Jan-18 07:00N 36°05' W 005°23'2 3.2
2018-Jan-18 06:30N 36°06' W 005°24'1 2.3
2018-Jan-18 06:01N 36°07' W 005°25'0 0.0
2018-Jan-18 05:30N 36°07' W 005°25'1 2.9
2018-Jan-18 05:00N 36°09' W 005°25'  
2018-Jan-12 11:52N 36°09' W 005°26'0 0.0
2018-Jan-12 11:30N 36°09' W 005°26'0 0.0
2018-Jan-12 11:00N 36°09' W 005°26'0 0.0
2018-Jan-12 10:30N 36°09' W 005°26'0 0.0
2018-Jan-12 10:00N 36°09' W 005°26'0 0.0
2018-Jan-12 09:30N 36°09' W 005°26'0 0.0
2018-Jan-12 09:00N 36°09' W 005°26'0 0.0
2018-Jan-12 08:30N 36°09' W 005°26'0 0.1
2018-Jan-12 08:00N 36°09' W 005°26'0 0.0
2018-Jan-12 07:30N 36°09' W 005°26'0 0.0
2018-Jan-11 22:51N 36°09' W 005°26'1 4.2
2018-Jan-11 22:31N 36°08' W 005°25'1 2.5
2018-Jan-11 22:00N 36°07' W 005°24'0 0.0
2018-Jan-11 21:30N 36°07' W 005°24'0 0.0
2018-Jan-11 21:00N 36°07' W 005°24'0 0.0
2018-Jan-11 20:31N 36°07' W 005°24'0 0.0
2018-Jan-11 20:00N 36°07' W 005°24'0 0.2
2018-Jan-11 19:31N 36°07' W 005°24'1 1.5
2018-Jan-11 19:00N 36°07' W 005°25'2 3.7
2018-Jan-11 18:30N 36°09' W 005°27'0 0.0
2018-Jan-11 12:01N 36°09' W 005°26'0 0.1
2018-Jan-11 12:01N 36°09' W 005°26'0 0.1
2018-Jan-11 11:30N 36°09' W 005°26'0 0.0
2018-Jan-11 11:01N 36°09' W 005°26'3 6.5
2018-Jan-11 10:30N 36°10' W 005°23'0 0.1
2018-Jan-11 10:00N 36°10' W 005°23'0 0.0
2018-Jan-11 09:31N 36°10' W 005°23'0 0.1
2018-Jan-11 09:01N 36°10' W 005°23'0 0.0
2018-Jan-11 08:31N 36°10' W 005°23'0 0.0
2018-Jan-11 08:01N 36°10' W 005°23'3 6.2
2018-Jan-11 07:29N 36°09' W 005°26'0 0.0
2018-Jan-11 07:01N 36°09' W 005°26'0 0.0
2018-Jan-10 12:11N 36°09' W 005°26'0 0.0
2018-Jan-10 12:01N 36°09' W 005°26'0 0.0
2018-Jan-10 11:30N 36°09' W 005°26'1 1.1
2018-Jan-10 11:00N 36°08' W 005°27'0 0.2
2018-Jan-10 10:31N 36°08' W 005°27'0 0.1
2018-Jan-10 05:10N 36°09' W 005°26'1 3.3
2018-Jan-10 05:00N 36°09' W 005°26'3 6.8
2018-Jan-10 04:30N 36°06' W 005°24'3 0.9
2018-Jan-10 00:46N 36°09' W 005°26'1 4.8
2018-Jan-10 00:31N 36°09' W 005°25'2 3.2
2018-Jan-10 00:00N 36°10' W 005°23'0 0.1
2018-Jan-09 23:31N 36°10' W 005°24'0 0.1
2018-Jan-09 23:00N 36°10' W 005°23'0 0.0
2018-Jan-09 22:30N 36°10' W 005°23'0 0.1
2018-Jan-09 22:00N 36°10' W 005°23'0 0.1
2018-Jan-09 21:30N 36°10' W 005°24'0 0.1
2018-Jan-09 21:00N 36°10' W 005°24'0 0.1
2018-Jan-09 20:31N 36°10' W 005°23'0 0.1
2018-Jan-09 20:00N 36°10' W 005°23'0 0.0
2018-Jan-09 19:31N 36°10' W 005°23'3 5.7
2018-Jan-09 19:00N 36°07' W 005°24'1 2.0
2018-Jan-09 18:31N 36°06' W 005°24'3 5.6
2018-Jan-09 18:00N 36°09' W 005°26'0 0.0
2018-Jan-09 16:08N 36°09' W 005°26'0 0.0
2018-Jan-09 16:00N 36°09' W 005°26'2 4.9
2018-Jan-09 15:30N 36°07' W 005°24'0 0.1
2018-Jan-09 15:00N 36°07' W 005°24'0 0.1
2018-Jan-09 14:30N 36°07' W 005°24'0 0.0
2018-Jan-09 13:42N 36°07' W 005°24'0 0.2
2018-Jan-09 13:31N 36°07' W 005°24'0 0.0
2018-Jan-09 13:00N 36°07' W 005°24'2 4.8
2018-Jan-09 12:30N 36°09' W 005°26'0 0.7
2018-Jan-09 12:00N 36°09' W 005°26'0 0.0
2018-Jan-09 11:30N 36°09' W 005°26'0 0.0
2018-Jan-09 11:00N 36°09' W 005°26'0 0.0
2018-Jan-09 10:30N 36°09' W 005°26'0 0.0
2018-Jan-09 10:01N 36°09' W 005°26'0 0.0
2018-Jan-09 09:30N 36°09' W 005°26'0 0.0
2018-Jan-09 09:00N 36°09' W 005°26'0 0.0
2018-Jan-09 08:30N 36°09' W 005°26'0 0.0
2018-Jan-09 08:00N 36°09' W 005°26'0 0.0
2018-Jan-09 07:30N 36°09' W 005°26'  
Track history (hours):
 
Tides and Currents Weather Stations Pressure Air Temp Water Temp Dewpoint Dewpoint Depression Visibility Wind Speed Wind Dir Waves Ship Positions

Bahia De Getares

Last reported at 2018-Jan-18 12:01 UTC. Time now 2018-Jan-19 03:55 UTC.
Position N 36°09' W 005°26'.

Length 23 m.

Type: Ship. MMSI: 225985074.

Date/timePositionNaut miles runAvg speedWind from/ knotsBaromVisibWave heightAir tempDewpointWater temp
2018-Jan-18 12:01N 36°09' W 005°26'0 0.0
2018-Jan-18 12:00N 36°09' W 005°26'0 0.0
2018-Jan-18 11:26N 36°09' W 005°26'0 0.0
2018-Jan-18 11:00N 36°09' W 005°26'0 0.0
2018-Jan-18 10:29N 36°09' W 005°26'0 0.0
2018-Jan-18 10:00N 36°09' W 005°26'0 0.0
2018-Jan-18 09:29N 36°09' W 005°26'0 0.0
2018-Jan-18 08:58N 36°09' W 005°26'1 3.1
2018-Jan-18 08:31N 36°08' W 005°25'4 7.7
2018-Jan-18 08:00N 36°04' W 005°23'0 0.2
2018-Jan-18 07:30N 36°04' W 005°23'1 1.4
2018-Jan-18 07:00N 36°05' W 005°23'2 3.2
2018-Jan-18 06:30N 36°06' W 005°24'1 2.3
2018-Jan-18 06:01N 36°07' W 005°25'0 0.0
2018-Jan-18 05:30N 36°07' W 005°25'1 2.9
2018-Jan-18 05:00N 36°09' W 005°25'  
2018-Jan-12 11:52N 36°09' W 005°26'0 0.0
2018-Jan-12 11:30N 36°09' W 005°26'0 0.0
2018-Jan-12 11:00N 36°09' W 005°26'0 0.0
2018-Jan-12 10:30N 36°09' W 005°26'0 0.0
2018-Jan-12 10:00N 36°09' W 005°26'0 0.0
2018-Jan-12 09:30N 36°09' W 005°26'0 0.0
2018-Jan-12 09:00N 36°09' W 005°26'0 0.0
2018-Jan-12 08:30N 36°09' W 005°26'0 0.1
2018-Jan-12 08:00N 36°09' W 005°26'0 0.0
2018-Jan-12 07:30N 36°09' W 005°26'0 0.0
2018-Jan-11 22:51N 36°09' W 005°26'1 4.2
2018-Jan-11 22:31N 36°08' W 005°25'1 2.5
2018-Jan-11 22:00N 36°07' W 005°24'0 0.0
2018-Jan-11 21:30N 36°07' W 005°24'0 0.0
2018-Jan-11 21:00N 36°07' W 005°24'0 0.0
2018-Jan-11 20:31N 36°07' W 005°24'0 0.0
2018-Jan-11 20:00N 36°07' W 005°24'0 0.2
2018-Jan-11 19:31N 36°07' W 005°24'1 1.5
2018-Jan-11 19:00N 36°07' W 005°25'2 3.7
2018-Jan-11 18:30N 36°09' W 005°27'0 0.0
2018-Jan-11 12:01N 36°09' W 005°26'0 0.1
2018-Jan-11 12:01N 36°09' W 005°26'0 0.1
2018-Jan-11 11:30N 36°09' W 005°26'0 0.0
2018-Jan-11 11:01N 36°09' W 005°26'3 6.5
2018-Jan-11 10:30N 36°10' W 005°23'0 0.1
2018-Jan-11 10:00N 36°10' W 005°23'0 0.0
2018-Jan-11 09:31N 36°10' W 005°23'0 0.1
2018-Jan-11 09:01N 36°10' W 005°23'0 0.0
2018-Jan-11 08:31N 36°10' W 005°23'0 0.0
2018-Jan-11 08:01N 36°10' W 005°23'3 6.2
2018-Jan-11 07:29N 36°09' W 005°26'0 0.0
2018-Jan-11 07:01N 36°09' W 005°26'0 0.0
2018-Jan-10 12:11N 36°09' W 005°26'0 0.0
2018-Jan-10 12:01N 36°09' W 005°26'0 0.0
2018-Jan-10 11:30N 36°09' W 005°26'1 1.1
2018-Jan-10 11:00N 36°08' W 005°27'0 0.2
2018-Jan-10 10:31N 36°08' W 005°27'0 0.1
2018-Jan-10 05:10N 36°09' W 005°26'1 3.3
2018-Jan-10 05:00N 36°09' W 005°26'3 6.8
2018-Jan-10 04:30N 36°06' W 005°24'3 0.9
2018-Jan-10 00:46N 36°09' W 005°26'1 4.8
2018-Jan-10 00:31N 36°09' W 005°25'2 3.2
2018-Jan-10 00:00N 36°10' W 005°23'0 0.1
2018-Jan-09 23:31N 36°10' W 005°24'0 0.1
2018-Jan-09 23:00N 36°10' W 005°23'0 0.0
2018-Jan-09 22:30N 36°10' W 005°23'0 0.1
2018-Jan-09 22:00N 36°10' W 005°23'0 0.1
2018-Jan-09 21:30N 36°10' W 005°24'0 0.1
2018-Jan-09 21:00N 36°10' W 005°24'0 0.1
2018-Jan-09 20:31N 36°10' W 005°23'0 0.1
2018-Jan-09 20:00N 36°10' W 005°23'0 0.0
2018-Jan-09 19:31N 36°10' W 005°23'3 5.7
2018-Jan-09 19:00N 36°07' W 005°24'1 2.0
2018-Jan-09 18:31N 36°06' W 005°24'3 5.6
2018-Jan-09 18:00N 36°09' W 005°26'0 0.0
2018-Jan-09 16:08N 36°09' W 005°26'0 0.0
2018-Jan-09 16:00N 36°09' W 005°26'2 4.9
2018-Jan-09 15:30N 36°07' W 005°24'0 0.1
2018-Jan-09 15:00N 36°07' W 005°24'0 0.1
2018-Jan-09 14:30N 36°07' W 005°24'0 0.0
2018-Jan-09 13:42N 36°07' W 005°24'0 0.2
2018-Jan-09 13:31N 36°07' W 005°24'0 0.0
2018-Jan-09 13:00N 36°07' W 005°24'2 4.8
2018-Jan-09 12:30N 36°09' W 005°26'0 0.7
2018-Jan-09 12:00N 36°09' W 005°26'0 0.0
2018-Jan-09 11:30N 36°09' W 005°26'0 0.0
2018-Jan-09 11:00N 36°09' W 005°26'0 0.0
2018-Jan-09 10:30N 36°09' W 005°26'0 0.0
2018-Jan-09 10:01N 36°09' W 005°26'0 0.0
2018-Jan-09 09:30N 36°09' W 005°26'0 0.0
2018-Jan-09 09:00N 36°09' W 005°26'0 0.0
2018-Jan-09 08:30N 36°09' W 005°26'0 0.0
2018-Jan-09 08:00N 36°09' W 005°26'0 0.0
2018-Jan-09 07:30N 36°09' W 005°26'  

Dump ship's entire track history